Time;durP1;ratioP1;P1;durP2;ratioP2;P2;SDS_P1;SDS_P2;PMS_P1;PMS_P2;Temp;Humidity;BMP_temperature;BMP_pressure;BME280_temperature;BME280_humidity;BME280_pressure;Samples;Min_cycle;Max_cycle;Signal;HPM_P1;HPM_P2
2022/01/17 00:00:10;;;;;;;;;54.25;41.50;;;;;5.69;88.97;102953.22;4981854;28;45309;-78
2022/01/17 00:02:36;;;;;;;;;56.00;43.75;;;;;5.81;88.95;102968.34;4981804;28;46642;-78
2022/01/17 00:05:03;;;;;;;;;48.50;40.25;;;;;5.87;89.04;102987.41;4999298;28;46131;-78
2022/01/17 00:07:30;;;;;;;;;57.50;42.00;;;;;5.81;88.95;102968.34;4999119;28;45377;-78
2022/01/17 00:09:56;;;;;;;;;50.50;42.25;;;;;5.80;88.93;102971.06;4999463;28;45297;-78
2022/01/17 00:12:21;;;;;;;;;50.50;42.50;;;;;5.88;88.88;102981.19;4998993;28;45301;-78
2022/01/17 00:14:47;;;;;;;;;45.50;39.75;;;;;5.91;88.56;102981.88;4999215;28;45221;-78
2022/01/17 00:19:42;;;;;;;;;53.50;43.50;;;;;5.84;88.79;102966.47;5000825;28;45334;-77
2022/01/17 00:22:07;;;;;;;;;57.25;45.50;;;;;5.91;89.10;102987.16;4984999;28;45654;-78
2022/01/17 00:24:32;;;;;;;;;45.75;38.75;;;;;5.92;88.79;102974.78;5002405;28;45352;-78
2022/01/17 00:26:58;;;;;;;;;52.25;41.00;;;;;5.96;89.06;102973.69;5002441;28;45451;-77
2022/01/17 00:29:23;;;;;;;;;52.25;41.00;;;;;5.94;89.11;102965.88;4984833;28;45392;-77
2022/01/17 00:31:49;;;;;;;;;54.50;43.50;;;;;5.94;88.72;102968.50;5002562;28;45355;-77
2022/01/17 00:34:14;;;;;;;;;52.50;42.00;;;;;5.86;88.46;102954.88;5002490;28;45787;-77
2022/01/17 00:36:39;;;;;;;;;53.25;43.75;;;;;5.87;88.27;102945.19;5002507;28;45325;-77
2022/01/17 00:39:05;;;;;;;;;49.25;39.75;;;;;5.91;88.63;102952.84;4984753;28;45864;-78
2022/01/17 00:41:30;;;;;;;;;52.25;42.50;;;;;5.88;88.54;102944.25;5002277;28;45310;-78
2022/01/17 00:43:56;;;;;;;;;46.75;38.00;;;;;6.00;88.56;102955.88;4984478;28;47440;-79
2022/01/17 00:46:21;;;;;;;;;51.50;42.00;;;;;5.93;88.42;102945.66;5002362;28;45291;-78
2022/01/17 00:48:47;;;;;;;;;55.50;42.25;;;;;6.04;88.18;102967.97;4984665;28;45288;-78
2022/01/17 00:51:12;;;;;;;;;47.50;40.50;;;;;6.06;88.08;102966.97;5002371;28;45532;-78
2022/01/17 00:53:38;;;;;;;;;51.00;40.25;;;;;6.06;88.07;102972.25;4984519;28;48198;-78
2022/01/17 00:56:04;;;;;;;;;51.50;40.25;;;;;6.08;88.25;102969.53;4984141;28;45303;-78
2022/01/17 00:58:30;;;;;;;;;47.25;38.00;;;;;6.15;88.12;102973.50;5002437;28;45257;-78
2022/01/17 01:00:55;;;;;;;;;52.25;41.75;;;;;6.08;88.42;102960.75;4984165;28;47245;-78
2022/01/17 01:03:21;;;;;;;;;45.25;39.50;;;;;6.15;88.20;102968.22;4984376;28;48335;-77
2022/01/17 01:05:47;;;;;;;;;51.75;43.00;;;;;6.11;88.24;102956.13;5002119;28;45353;-78
2022/01/17 01:08:12;;;;;;;;;54.50;43.25;;;;;6.17;88.07;102965.50;5002008;28;45338;-78
2022/01/17 01:10:37;;;;;;;;;59.00;45.50;;;;;6.17;88.31;102966.31;5001720;28;45321;-78
2022/01/17 01:13:05;;;;;;;;;55.00;44.50;;;;;6.21;87.71;102968.78;5001814;28;46265;-77
2022/01/17 01:18:29;;;;;;;;;52.50;43.00;;;;;6.06;87.96;102943.22;5001579;28;45285;-77
2022/01/17 01:29:07;;;;;;;;;45.25;38.75;;;;;6.04;87.77;102938.94;5001472;28;45416;-78
2022/01/17 01:34:11;;;;;;;;;48.50;41.50;;;;;6.20;88.20;102967.97;5001391;28;45281;-78
2022/01/17 01:36:36;;;;;;;;;55.50;43.50;;;;;6.08;88.23;102950.19;5001412;28;45803;-78
2022/01/17 01:39:04;;;;;;;;;46.50;38.50;;;;;6.18;88.34;102954.84;4983669;28;45427;-77
2022/01/17 01:41:33;;;;;;;;;47.75;39.00;;;;;6.13;88.04;102946.31;5001309;28;45572;-78
2022/01/17 01:43:59;;;;;;;;;45.25;38.25;;;;;6.29;87.89;102971.84;5001308;28;45332;-78
2022/01/17 01:46:25;;;;;;;;;55.25;42.25;;;;;6.24;88.01;102963.31;4983690;28;45419;-77
2022/01/17 01:48:50;;;;;;;;;53.25;41.75;;;;;6.25;87.96;102971.16;4983595;28;45424;-77
2022/01/17 01:51:16;;;;;;;;;49.75;40.00;;;;;6.27;87.68;102979.84;4983772;28;47420;-78
2022/01/17 01:53:41;;;;;;;;;49.00;39.00;;;;;6.21;87.66;102974.94;4983287;28;48057;-78
2022/01/17 01:56:07;;;;;;;;;49.25;38.50;;;;;6.21;88.05;102971.44;5000767;28;45320;-76
2022/01/17 01:58:33;;;;;;;;;47.00;38.00;;;;;6.29;87.61;102991.16;4983627;28;45324;-78
2022/01/17 02:00:59;;;;;;;;;43.50;37.25;;;;;6.22;87.36;102975.78;4983434;28;46157;-78
2022/01/17 02:03:25;;;;;;;;;47.25;38.50;;;;;6.32;87.73;102998.06;4983338;28;47752;-78
2022/01/17 02:05:50;;;;;;;;;47.50;39.75;;;;;6.17;87.81;102971.59;4983222;28;45838;-78
2022/01/17 02:08:16;;;;;;;;;48.00;38.75;;;;;6.35;87.95;102997.03;5001311;28;45347;-78
2022/01/17 02:10:42;;;;;;;;;47.75;39.25;;;;;6.32;87.94;102987.50;5000640;28;45447;-78
2022/01/17 02:13:07;;;;;;;;;49.75;40.00;;;;;6.33;87.79;102983.91;5000904;28;45227;-78
2022/01/17 02:15:33;;;;;;;;;52.00;40.00;;;;;6.36;87.89;102988.16;5000933;28;45188;-78
2022/01/17 02:17:59;;;;;;;;;47.25;39.50;;;;;6.18;88.04;102972.47;5000931;28;45164;-78
2022/01/17 02:20:34;;;;;;;;;43.00;34.50;;;;;6.36;87.83;102986.38;4983114;28;47369;-78
2022/01/17 02:23:04;;;;;;;;;47.50;39.75;;;;;6.29;87.49;102971.84;5000775;28;45332;-78
2022/01/17 02:25:30;;;;;;;;;53.00;41.50;;;;;6.39;87.53;102988.84;4982791;28;45350;-77
2022/01/17 02:27:56;;;;;;;;;41.75;36.00;;;;;6.29;87.47;102966.56;5000948;28;45357;-78
2022/01/17 02:30:23;;;;;;;;;50.25;42.25;;;;;6.09;87.13;102936.03;4982772;28;45940;-78
2022/01/17 02:32:48;;;;;;;;;47.25;38.00;;;;;6.24;87.40;102958.03;5000631;28;45321;-78
2022/01/17 02:35:20;;;;;;;;;51.25;42.50;;;;;6.34;87.58;102975.03;5000459;28;45439;-78
2022/01/17 02:37:46;;;;;;;;;45.75;38.75;;;;;6.32;87.33;102964.56;4983306;28;45443;-78
2022/01/17 02:40:16;;;;;;;;;44.00;36.75;;;;;6.36;87.31;102970.53;5000467;28;45397;-77
2022/01/17 02:42:43;;;;;;;;;47.75;39.00;;;;;6.39;87.61;102980.91;4966246;28;48140;-78
2022/01/17 02:47:54;;;;;;;;;45.50;38.50;;;;;6.30;87.44;102953.25;5000443;28;45320;-78
2022/01/17 02:50:20;;;;;;;;;45.00;39.00;;;;;6.34;87.37;102953.91;5000305;28;45539;-78
2022/01/17 02:52:45;;;;;;;;;45.00;39.50;;;;;6.30;87.79;102958.53;4982624;28;47253;-78
2022/01/17 02:55:11;;;;;;;;;43.25;36.50;;;;;6.34;87.42;102968.94;5000260;28;45280;-78
2022/01/17 02:57:36;;;;;;;;;39.50;36.00;;;;;6.35;87.02;102965.34;4982608;28;45591;-78
2022/01/17 03:00:03;;;;;;;;;46.50;37.75;;;;;6.41;87.42;102983.47;5000401;28;45223;-78
2022/01/17 03:02:29;;;;;;;;;50.50;40.75;;;;;6.44;87.28;102985.94;5000144;28;46374;-78
2022/01/17 03:04:54;;;;;;;;;44.50;37.00;;;;;6.32;87.22;102964.56;4982326;28;45940;-78
2022/01/17 03:07:19;;;;;;;;;43.25;37.00;;;;;6.42;87.18;102977.25;5000258;28;45172;-76
2022/01/17 03:10:00;;;;;;;;;44.50;36.50;;;;;6.39;87.31;102980.06;4982190;28;46204;-78
2022/01/17 03:12:25;;;;;;;;;48.00;38.25;;;;;6.40;87.06;102982.59;4999966;28;46065;-78
2022/01/17 03:14:51;;;;;;;;;46.25;36.00;;;;;6.39;87.28;102996.78;4999902;28;45255;-78
2022/01/17 03:17:16;;;;;;;;;43.00;37.00;;;;;6.32;87.38;102990.97;5000036;28;45206;-76
2022/01/17 03:19:41;;;;;;;;;47.25;38.25;;;;;6.34;87.38;102988.25;5000001;28;45390;-78
2022/01/17 03:22:07;;;;;;;;;48.50;40.25;;;;;6.26;87.53;102972.03;4999942;28;45214;-77
2022/01/17 03:24:32;;;;;;;;;41.25;36.25;;;;;6.37;87.06;102995.16;4999876;28;45266;-78
2022/01/17 03:26:57;;;;;;;;;47.25;38.75;;;;;6.27;87.05;102982.50;4999816;28;45370;-76
2022/01/17 03:29:23;;;;;;;;;41.75;36.00;;;;;6.45;87.51;103008.75;4999761;28;45594;-78
2022/01/17 03:31:48;;;;;;;;;42.00;37.00;;;;;6.46;87.08;103005.16;4982061;28;47260;-76
2022/01/17 03:34:14;;;;;;;;;43.00;36.75;;;;;6.32;86.99;102974.31;4999843;28;45349;-77
2022/01/17 03:36:40;;;;;;;;;44.75;37.75;;;;;6.34;87.36;102987.41;4999900;28;45516;-77
2022/01/17 03:39:06;;;;;;;;;45.00;38.75;;;;;6.39;87.59;103004.69;4981856;28;47239;-77
2022/01/17 03:41:31;;;;;;;;;47.75;39.25;;;;;6.36;87.25;102999.59;4999286;28;45375;-78
2022/01/17 03:43:56;;;;;;;;;38.25;34.25;;;;;6.30;87.23;102986.75;4999690;28;45338;-78
2022/01/17 03:46:22;;;;;;;;;49.75;39.00;;;;;6.35;87.21;102992.63;4999843;28;45452;-78
2022/01/17 03:48:47;;;;;;;;;42.75;36.25;;;;;6.37;86.96;103001.28;4981717;28;46314;-78
2022/01/17 03:51:13;;;;;;;;;36.00;33.25;;;;;6.39;87.40;103014.41;4999492;28;45353;-77
2022/01/17 03:53:38;;;;;;;;;45.75;37.00;;;;;6.42;87.41;103024.78;4980917;28;45474;-77
2022/01/17 03:56:04;;;;;;;;;51.00;42.00;;;;;6.29;86.96;103006.19;4999371;28;45261;-78
2022/01/17 03:58:30;;;;;;;;;50.00;40.00;;;;;6.43;87.16;103031.75;4999544;28;45303;-78
2022/01/17 04:00:57;;;;;;;;;49.50;42.25;;;;;6.41;86.94;103028.38;4981612;28;47134;-76
2022/01/17 04:03:23;;;;;;;;;43.25;38.25;;;;;6.47;87.41;103043.00;4999454;28;45307;-77
2022/01/17 04:05:49;;;;;;;;;45.00;38.75;;;;;6.44;87.30;103031.69;4981707;28;45261;-77
2022/01/17 04:08:14;;;;;;;;;52.75;41.25;;;;;6.39;87.36;103025.81;4981460;28;45779;-78
2022/01/17 04:10:40;;;;;;;;;50.25;39.25;;;;;6.46;87.83;103038.69;4981338;28;48244;-78
2022/01/17 04:13:08;;;;;;;;;51.75;40.00;;;;;6.49;87.55;103052.53;4981719;28;45348;-78
2022/01/17 04:15:35;;;;;;;;;45.50;36.75;;;;;6.46;87.19;103060.66;4999354;28;45407;-78
2022/01/17 04:18:02;;;;;;;;;47.25;39.25;;;;;6.46;87.62;103065.94;4998930;28;45415;-78
2022/01/17 04:20:29;;;;;;;;;49.00;39.50;;;;;6.39;87.06;103048.75;4999153;28;45334;-77
2022/01/17 04:22:57;;;;;;;;;48.00;39.00;;;;;6.36;87.60;103041.00;4999349;28;45187;-77
2022/01/17 04:25:27;;;;;;;;;46.00;37.00;;;;;6.44;86.98;103044.06;4999024;28;45407;-77
2022/01/17 04:27:53;;;;;;;;;43.00;36.25;;;;;6.47;87.62;103046.53;4999078;28;45521;-78
2022/01/17 04:30:19;;;;;;;;;42.75;38.25;;;;;6.51;87.21;103039.25;4980932;28;47385;-77
2022/01/17 04:32:45;;;;;;;;;43.50;37.50;;;;;6.47;87.26;103027.16;4999090;28;45332;-76
2022/01/17 04:35:13;;;;;;;;;45.25;37.25;;;;;6.52;87.09;103030.38;4981423;28;45365;-77
2022/01/17 04:37:38;;;;;;;;;44.25;38.50;;;;;6.46;87.23;103023.66;4998957;28;45301;-78
2022/01/17 04:40:05;;;;;;;;;48.00;38.75;;;;;6.48;87.46;103031.50;4981084;28;46240;-78
2022/01/17 04:42:31;;;;;;;;;39.75;35.25;;;;;6.44;87.22;103031.69;4981132;28;45413;-78
2022/01/17 04:45:09;;;;;;;;;54.50;42.25;;;;;6.51;87.03;103037.47;4981267;28;45207;-78
2022/01/17 04:47:42;;;;;;;;;48.00;40.25;;;;;6.53;86.96;103047.94;4998972;28;45217;-78
2022/01/17 04:50:11;;;;;;;;;48.75;38.75;;;;;6.43;87.53;103048.47;4998738;28;46340;-77
2022/01/17 04:52:37;;;;;;;;;53.75;43.50;;;;;6.52;86.99;103055.00;4980939;28;45429;-78
2022/01/17 04:55:08;;;;;;;;;49.50;40.00;;;;;6.48;87.61;103042.06;4998566;28;45380;-77
2022/01/17 04:57:34;;;;;;;;;47.50;38.25;;;;;6.41;86.95;103031.84;4981034;28;45304;-78
2022/01/17 05:00:00;;;;;;;;;49.75;39.00;;;;;6.50;87.06;103040.19;4980761;28;46868;-78
2022/01/17 05:02:26;;;;;;;;;41.75;36.50;;;;;6.49;86.94;103036.69;4998866;28;45256;-77
2022/01/17 05:04:52;;;;;;;;;53.75;43.25;;;;;6.56;86.83;103053.88;4999038;28;45567;-77
2022/01/17 05:07:18;;;;;;;;;50.25;42.75;;;;;6.56;86.79;103056.53;5001055;28;45345;-76
2022/01/17 05:09:44;;;;;;;;;51.25;40.50;;;;;6.51;86.82;103055.09;4984115;28;48612;-77
2022/01/17 05:12:10;;;;;;;;;50.50;41.25;;;;;6.51;86.82;103065.66;5001769;28;45388;-77
2022/01/17 05:14:40;;;;;;;;;50.25;36.00;;;;;6.30;87.36;103029.00;5002017;28;45337;-77
2022/01/17 05:17:22;;;;;;;;;54.25;43.75;;;;;6.49;86.99;103057.81;4984001;28;46087;-78
2022/01/17 05:19:57;;;;;;;;;52.25;42.00;;;;;6.52;87.20;103068.22;4982152;28;45295;-78
2022/01/17 05:22:26;;;;;;;;;49.50;40.25;;;;;6.54;87.53;103070.78;4982165;28;45227;-77
2022/01/17 05:24:51;;;;;;;;;49.00;40.50;;;;;6.52;87.34;103065.56;4997190;28;45403;-76
2022/01/17 05:27:17;;;;;;;;;44.25;37.50;;;;;6.51;87.43;103065.66;4964119;28;47163;-78
2022/01/17 05:29:42;;;;;;;;;49.75;40.50;;;;;6.35;87.13;103045.44;4961033;28;47669;-77
2022/01/17 05:32:08;;;;;;;;;54.50;41.25;;;;;6.37;87.09;103059.41;4962550;28;45417;-78
2022/01/17 05:34:34;;;;;;;;;55.75;43.50;;;;;6.35;86.91;103053.38;4961170;28;45430;-76
2022/01/17 05:37:01;;;;;;;;;54.75;41.00;;;;;6.50;87.00;103070.09;4962480;28;45500;-78
2022/01/17 05:39:26;;;;;;;;;49.50;40.00;;;;;6.46;87.07;103071.22;4962209;28;46301;-77
2022/01/17 05:41:52;;;;;;;;;55.25;44.00;;;;;6.17;86.86;103031.50;4960899;28;45272;-78
2022/01/17 05:44:17;;;;;;;;;52.50;44.00;;;;;6.30;86.81;103055.41;4962638;28;45339;-78
2022/01/17 05:46:43;;;;;;;;;55.00;43.50;;;;;6.43;86.85;103085.47;4961047;28;46119;-78
2022/01/17 05:49:08;;;;;;;;;50.75;42.25;;;;;6.36;87.02;103073.56;4944732;28;47255;-77
2022/01/17 05:51:34;;;;;;;;;50.25;42.00;;;;;6.43;87.21;103085.47;4962263;28;45342;-78
2022/01/17 05:53:59;;;;;;;;;53.00;44.75;;;;;6.41;87.46;103079.41;4962286;28;45271;-77
2022/01/17 05:56:25;;;;;;;;;50.50;39.00;;;;;6.39;86.93;103086.59;4960803;28;46483;-77
2022/01/17 05:58:50;;;;;;;;;51.25;42.25;;;;;6.38;87.39;103084.03;4976852;28;47996;-78
2022/01/17 06:01:15;;;;;;;;;53.00;42.25;;;;;6.34;86.96;103077.22;4962096;28;45229;-78
2022/01/17 06:03:41;;;;;;;;;51.75;41.25;;;;;6.26;87.53;103075.03;4962287;28;45149;-76
2022/01/17 06:06:06;;;;;;;;;53.75;42.00;;;;;6.29;87.23;103080.13;4962013;28;45277;-76
2022/01/17 06:08:32;;;;;;;;;51.00;41.00;;;;;6.17;87.58;103057.91;4960540;28;48433;-78
2022/01/17 06:10:59;;;;;;;;;53.75;42.00;;;;;6.24;87.06;103074.25;4944166;28;46179;-76
2022/01/17 06:13:24;;;;;;;;;53.25;43.00;;;;;6.19;87.49;103067.44;4962071;28;45387;-77
2022/01/17 06:15:50;;;;;;;;;53.50;44.00;;;;;5.97;86.94;103033.47;4961652;28;45607;-77
2022/01/17 06:18:15;;;;;;;;;49.25;39.75;;;;;6.05;87.01;103055.00;4974727;28;45469;-78
2022/01/17 06:20:41;;;;;;;;;47.00;40.50;;;;;6.09;87.41;103089.16;4980979;28;45388;-78
2022/01/17 06:23:06;;;;;;;;;53.00;43.00;;;;;5.92;87.69;103080.38;4963946;28;45382;-77
2022/01/17 06:25:31;;;;;;;;;54.00;43.75;;;;;6.00;88.31;103098.44;4964017;28;46244;-77
2022/01/17 06:27:57;;;;;;;;;52.25;42.00;;;;;6.01;87.78;103102.75;4981278;28;45342;-77
2022/01/17 06:30:22;;;;;;;;;59.00;43.50;;;;;5.86;88.43;103068.38;4981119;28;45254;-79
2022/01/17 06:32:48;;;;;;;;;51.25;42.00;;;;;6.13;87.93;103107.41;4963544;28;45279;-79
2022/01/17 06:35:13;;;;;;;;;51.00;42.50;;;;;6.11;88.36;103109.25;4981045;28;45380;-79
2022/01/17 06:37:39;;;;;;;;;45.75;39.25;;;;;6.12;88.24;103108.34;4981065;28;46043;-79
2022/01/17 06:40:07;;;;;;;;;50.00;40.00;;;;;6.12;88.43;103102.19;4981009;28;45338;-79
2022/01/17 06:42:34;;;;;;;;;49.75;40.00;;;;;6.16;88.60;103120.44;4981016;28;45285;-78
2022/01/17 06:45:04;;;;;;;;;52.75;41.75;;;;;6.25;88.46;103132.25;4980937;28;45355;-76
2022/01/17 06:47:33;;;;;;;;;46.50;37.50;;;;;6.26;88.56;103136.59;4980895;28;46089;-78
2022/01/17 06:49:59;;;;;;;;;52.50;42.75;;;;;6.26;88.74;103143.69;4979700;28;45369;-77
2022/01/17 06:52:24;;;;;;;;;48.00;40.75;;;;;6.10;88.52;103125.22;4981006;28;45250;-80
2022/01/17 06:54:52;;;;;;;;;54.75;40.00;;;;;6.15;88.50;103131.09;4962819;28;47398;-78
2022/01/17 06:57:18;;;;;;;;;51.25;40.50;;;;;6.16;88.26;103109.88;4981880;28;45456;-79
2022/01/17 06:59:43;;;;;;;;;46.50;36.25;;;;;6.30;88.24;103109.09;4982086;28;45352;-79
2022/01/17 07:02:09;;;;;;;;;49.50;39.00;;;;;6.31;88.05;103112.56;4983438;28;45220;-78
2022/01/17 07:04:34;;;;;;;;;43.50;37.00;;;;;6.34;87.96;103119.50;4983254;28;45557;-77
2022/01/17 07:07:00;;;;;;;;;56.25;44.50;;;;;6.35;88.37;103129.97;4984899;28;46270;-78
2022/01/17 07:09:28;;;;;;;;;49.25;39.50;;;;;6.23;88.09;103109.53;4980721;28;45336;-77
2022/01/17 07:11:53;;;;;;;;;42.00;37.00;;;;;6.14;88.29;103101.16;4962402;28;45283;-79
2022/01/17 07:14:19;;;;;;;;;48.75;41.25;;;;;6.33;88.02;103155.59;4962043;28;46046;-80
2022/01/17 07:16:45;;;;;;;;;53.00;39.50;;;;;6.38;88.36;103177.31;4981287;28;45315;-79
2022/01/17 07:19:10;;;;;;;;;50.75;41.25;;;;;6.28;87.72;103157.63;4980695;28;45308;-77
2022/01/17 07:21:36;;;;;;;;;44.00;36.25;;;;;6.38;88.34;103208.19;4982767;28;45310;-80
2022/01/17 07:24:01;;;;;;;;;48.75;39.50;;;;;6.38;88.49;103205.53;4983053;28;46124;-80
2022/01/17 07:26:27;;;;;;;;;72.00;52.75;;;;;6.37;88.34;103199.41;4984497;28;47077;-79
2022/01/17 07:28:53;;;;;;;;;52.00;43.25;;;;;6.45;88.33;103212.19;4980511;28;45207;-79
2022/01/17 07:31:18;;;;;;;;;51.00;39.75;;;;;6.41;88.93;103189.53;4979683;28;45549;-79
2022/01/17 07:33:44;;;;;;;;;57.50;43.75;;;;;6.47;88.29;103199.75;4977781;28;45775;-81
2022/01/17 07:36:11;;;;;;;;;49.50;39.75;;;;;6.42;88.05;103181.50;4961133;28;47716;-79
2022/01/17 07:38:36;;;;;;;;;46.50;38.50;;;;;6.44;88.28;103170.88;4961270;28;45405;-79
2022/01/17 07:41:02;;;;;;;;;51.25;41.25;;;;;6.50;87.99;103199.56;4978679;28;45452;-79
2022/01/17 07:43:28;;;;;;;;;49.25;40.25;;;;;6.37;88.31;103169.50;4979129;28;45478;-80
2022/01/17 07:46:47;;;;;;;;;54.25;43.00;;;;;6.40;87.90;103172.81;4980769;28;45611;-79
2022/01/17 07:48:58;;;;;;;;;53.50;42.25;;;;;6.47;88.32;103190.97;4971710;28;45600;-80
2022/01/17 07:51:25;;;;;;;;;55.25;39.25;;;;;6.37;88.31;103178.25;4980143;28;45387;-79
2022/01/17 07:53:52;;;;;;;;;46.50;40.00;;;;;6.39;88.40;103194.91;4979758;28;45310;-79
2022/01/17 07:56:17;;;;;;;;;50.75;41.75;;;;;6.33;88.02;103205.78;4979519;28;46360;-79
2022/01/17 07:58:44;;;;;;;;;53.75;40.75;;;;;6.32;88.07;103206.75;4979784;28;45228;-80
2022/01/17 08:01:09;;;;;;;;;51.75;41.50;;;;;6.25;87.91;103206.22;4978597;28;45252;-79
2022/01/17 08:03:34;;;;;;;;;58.75;46.50;;;;;6.25;88.76;103202.72;4979706;28;45493;-80
2022/01/17 08:06:00;;;;;;;;;59.50;46.75;;;;;6.08;88.29;103186.03;4979849;28;45350;-79
2022/01/17 08:08:26;;;;;;;;;59.75;47.75;;;;;6.23;88.07;103210.75;4979555;28;45267;-80
2022/01/17 08:10:51;;;;;;;;;53.25;43.50;;;;;6.25;87.71;103208.84;4979678;28;45280;-79
2022/01/17 08:13:18;;;;;;;;;56.50;46.00;;;;;6.25;88.20;103218.56;4994573;28;45560;-80
2022/01/17 08:15:45;;;;;;;;;50.50;40.25;;;;;6.24;88.31;103212.44;4977722;28;47494;-79
2022/01/17 08:18:10;;;;;;;;;52.75;42.25;;;;;6.27;88.10;103212.28;4979408;28;45355;-79
2022/01/17 08:20:36;;;;;;;;;60.00;46.50;;;;;6.27;87.71;103216.69;4979346;28;45334;-79
2022/01/17 08:23:02;;;;;;;;;53.75;41.00;;;;;6.30;88.26;103227.97;4979822;28;45398;-80
2022/01/17 08:25:28;;;;;;;;;47.75;41.75;;;;;6.29;88.10;103223.59;4978797;28;46128;-80
2022/01/17 08:27:53;;;;;;;;;44.00;37.25;;;;;6.37;88.22;103238.19;4979660;28;45344;-79
2022/01/17 08:30:19;;;;;;;;;51.25;40.00;;;;;6.38;88.19;103231.97;4979372;28;45288;-80
2022/01/17 08:32:44;;;;;;;;;49.75;41.00;;;;;6.40;87.78;103233.56;4979661;28;45229;-80
2022/01/17 08:35:11;;;;;;;;;48.25;39.25;;;;;6.32;87.98;103212.03;4976899;28;46072;-80
2022/01/17 08:37:36;;;;;;;;;48.25;37.75;;;;;6.47;88.34;103235.88;4978816;28;45351;-80
2022/01/17 08:40:04;;;;;;;;;47.25;38.75;;;;;6.52;88.35;103239.97;4979313;28;45297;-81
2022/01/17 08:42:30;;;;;;;;;46.00;36.75;;;;;6.58;87.95;103249.34;4964652;28;45469;-81
2022/01/17 08:44:56;;;;;;;;;45.25;39.00;;;;;6.55;87.85;103229.22;4980882;28;45301;-81
2022/01/17 08:47:23;;;;;;;;;49.75;40.75;;;;;6.69;88.28;103256.66;4982136;28;45297;-81
2022/01/17 08:49:48;;;;;;;;;53.00;42.50;;;;;6.65;87.64;103239.28;4981649;28;46513;-81
2022/01/17 08:52:15;;;;;;;;;47.25;39.25;;;;;6.74;87.45;103253.78;4981800;28;45510;-81
2022/01/17 08:54:42;;;;;;;;;48.00;39.00;;;;;6.63;87.66;103231.44;4986091;28;45678;-81
2022/01/17 08:57:07;;;;;;;;;46.00;39.00;;;;;6.77;87.47;103243.84;4985724;28;45444;-80
2022/01/17 08:59:32;;;;;;;;;49.25;39.25;;;;;6.84;87.58;103239.09;4981840;28;45389;-80
2022/01/17 09:01:58;;;;;;;;;49.50;40.00;;;;;6.87;87.73;103246.84;4981160;28;45431;-80
2022/01/17 09:04:24;;;;;;;;;53.00;42.50;;;;;6.81;87.54;103237.47;4989067;28;45388;-81
2022/01/17 09:06:49;;;;;;;;;50.75;40.00;;;;;6.84;87.02;103227.66;5002238;28;45497;-80
2022/01/17 09:09:16;;;;;;;;;46.50;39.25;;;;;6.94;87.33;103244.69;4991073;28;45896;-80
2022/01/17 09:11:42;;;;;;;;;45.50;38.25;;;;;6.90;87.55;103241.38;4982285;28;45255;-80
2022/01/17 09:14:08;;;;;;;;;46.00;38.00;;;;;7.03;87.01;103261.81;4979873;28;46179;-79
2022/01/17 09:16:33;;;;;;;;;54.25;42.50;;;;;7.04;86.72;103261.72;4981680;28;45444;-80
2022/01/17 09:19:00;;;;;;;;;54.25;41.00;;;;;7.01;86.81;103264.56;4982553;28;45581;-80
2022/01/17 09:21:26;;;;;;;;;53.00;40.25;;;;;6.92;87.08;103236.00;4980739;28;45223;-80
2022/01/17 09:23:54;;;;;;;;;52.25;41.75;;;;;7.18;87.03;103276.81;4981996;28;45238;-81
2022/01/17 09:26:23;;;;;;;;;55.25;44.00;;;;;7.23;87.11;103287.13;4979976;28;45983;-80
2022/01/17 09:28:49;;;;;;;;;52.25;43.25;;;;;7.23;86.91;103288.91;4985869;28;45394;-80
2022/01/17 09:31:15;;;;;;;;;53.75;43.00;;;;;7.27;86.85;103295.75;5009994;28;45458;-81
2022/01/17 09:33:40;;;;;;;;;54.50;44.00;;;;;7.23;86.91;103292.41;5013701;28;46335;-81
2022/01/17 09:36:05;;;;;;;;;60.50;47.75;;;;;7.10;86.56;103259.69;5003742;28;45310;-81
2022/01/17 09:38:31;;;;;;;;;56.25;45.00;;;;;7.27;86.90;103303.69;5001980;28;45755;-81
2022/01/17 09:40:56;;;;;;;;;51.75;41.00;;;;;7.32;87.14;103304.25;5021202;28;45147;-80
2022/01/17 09:43:22;;;;;;;;;56.25;45.00;;;;;7.30;86.86;103280.53;5021399;28;46329;-80
2022/01/17 09:45:48;;;;;;;;;54.00;44.50;;;;;7.38;86.58;103280.09;5003635;28;45333;-80
2022/01/17 09:48:19;;;;;;;;;55.00;44.75;;;;;7.41;86.47;103287.84;4999899;28;45547;-80
2022/01/17 09:50:56;;;;;;;;;55.50;44.50;;;;;7.35;86.22;103282.03;4999381;28;45373;-80
2022/01/17 09:53:22;;;;;;;;;61.50;48.25;;;;;7.35;86.68;103287.34;5011835;28;46446;-79
2022/01/17 09:55:48;;;;;;;;;54.75;43.50;;;;;7.24;86.77;103298.56;4999880;28;45389;-80
2022/01/17 09:58:14;;;;;;;;;53.00;43.00;;;;;7.34;86.43;103328.84;5020960;28;45328;-80
2022/01/17 10:00:43;;;;;;;;;55.25;45.00;;;;;7.36;86.62;103328.75;5006174;28;45745;-79
2022/01/17 10:03:13;;;;;;;;;57.00;46.25;;;;;7.38;86.42;103335.66;5000609;28;46336;-80
2022/01/17 10:05:40;;;;;;;;;62.25;49.00;;;;;7.35;86.34;103341.13;5000309;28;45364;-80
2022/01/17 10:08:07;;;;;;;;;60.00;48.25;;;;;7.34;86.63;103339.41;4998843;28;45567;-81
2022/01/17 10:10:57;;;;;;;;;59.75;47.25;;;;;7.37;86.30;103339.25;4998532;28;45588;-80
2022/01/17 10:13:26;;;;;;;;;55.50;44.75;;;;;7.33;86.70;103335.91;4999808;28;45342;-80
2022/01/17 10:15:58;;;;;;;;;57.75;46.75;;;;;7.35;86.32;103329.66;5015780;28;45486;-80
2022/01/17 10:18:33;;;;;;;;;58.25;45.25;;;;;7.47;86.73;103341.34;5010990;28;45429;-80
2022/01/17 10:21:09;;;;;;;;;62.50;47.00;;;;;7.54;86.28;103350.66;5005049;28;45516;-80
2022/01/17 10:34:57;;;;;;;;;63.75;48.50;;;;;7.55;86.52;103352.34;5003188;28;45435;-80
2022/01/17 10:37:25;;;;;;;;;60.75;48.50;;;;;7.56;86.52;103354.03;4999126;28;45438;-80
2022/01/17 10:40:13;;;;;;;;;55.25;47.25;;;;;7.55;86.34;103342.59;5020098;28;45275;-80
2022/01/17 10:42:47;;;;;;;;;55.00;45.25;;;;;7.59;86.55;103345.91;5002472;28;46334;-81
2022/01/17 10:45:25;;;;;;;;;66.00;50.75;;;;;7.61;86.61;103346.69;5020162;28;45431;-80
2022/01/17 10:47:55;;;;;;;;;66.00;51.50;;;;;7.68;86.35;103340.09;5001954;28;45421;-80
2022/01/17 10:50:24;;;;;;;;;63.00;48.50;;;;;7.69;86.07;103323.25;5020057;28;45392;-80
2022/01/17 10:52:52;;;;;;;;;62.75;48.75;;;;;7.73;85.97;103323.94;4991006;28;46060;-81
2022/01/17 10:55:25;;;;;;;;;58.00;46.25;;;;;7.65;85.67;103310.28;4998689;28;46206;-80
2022/01/17 10:57:57;;;;;;;;;61.50;48.75;;;;;7.58;85.59;103288.63;4981633;28;45487;-81
2022/01/17 11:00:26;;;;;;;;;67.75;54.50;;;;;7.67;86.36;103305.75;5000255;28;45488;-81
2022/01/17 11:03:01;;;;;;;;;67.25;54.25;;;;;7.74;86.12;103316.81;5004802;28;45580;-80
2022/01/17 11:05:28;;;;;;;;;64.75;52.50;;;;;7.75;85.71;103297.38;5002129;28;48319;-80
2022/01/17 11:07:56;;;;;;;;;58.25;47.00;;;;;7.74;85.91;103303.59;5019756;28;45341;-81
2022/01/17 11:10:24;;;;;;;;;59.75;47.75;;;;;7.75;86.01;103310.59;5019615;28;45269;-81
2022/01/17 11:12:51;;;;;;;;;65.75;51.00;;;;;7.77;85.58;103306.06;5000774;28;45424;-80
2022/01/17 11:15:18;;;;;;;;;62.75;48.75;;;;;7.77;86.52;103298.97;5013409;28;45540;-82
2022/01/17 11:17:52;;;;;;;;;61.50;47.50;;;;;7.96;86.06;103322.53;5015465;28;45334;-81
2022/01/17 11:20:20;;;;;;;;;59.00;47.50;;;;;8.06;85.99;103311.38;4982547;28;45589;-83
2022/01/17 11:22:48;;;;;;;;;54.75;45.00;;;;;8.09;85.16;103304.09;5000727;28;45491;-82
2022/01/17 11:25:22;;;;;;;;;55.00;45.25;;;;;8.07;85.83;103300.69;5019964;28;45399;-83
2022/01/17 11:27:49;;;;;;;;;58.00;47.50;;;;;8.13;85.84;103288.88;5019595;28;45472;-81
2022/01/17 11:30:16;;;;;;;;;62.25;46.75;;;;;8.23;85.81;103285.66;5019386;28;45299;-83
2022/01/17 11:32:42;;;;;;;;;56.00;46.50;;;;;8.26;85.67;103278.34;5001865;28;46340;-83
2022/01/17 11:35:09;;;;;;;;;56.75;45.50;;;;;8.31;85.34;103291.31;5000532;28;45956;-80
2022/01/17 11:37:37;;;;;;;;;63.00;48.75;;;;;8.37;85.54;103282.13;4998671;28;45392;-81
2022/01/17 11:40:05;;;;;;;;;60.50;48.00;;;;;8.41;85.09;103279.19;4998440;28;45365;-82
2022/01/17 11:42:39;;;;;;;;;59.50;48.25;;;;;8.43;85.05;103281.72;5000717;28;45349;-82
2022/01/17 11:45:24;;;;;;;;;66.50;53.75;;;;;8.49;85.18;103277.84;4982948;28;48038;-83